sensor_id;sensor_type;location;lat;lon;timestamp;temperature;humidity
2002;DHT22;1003;48.002;7.788;2023-09-18T00:00:10;19.60;99.90
2002;DHT22;1003;48.002;7.788;2023-09-18T00:02:38;19.60;99.90
2002;DHT22;1003;48.002;7.788;2023-09-18T00:05:06;19.70;99.90
2002;DHT22;1003;48.002;7.788;2023-09-18T00:07:35;19.70;99.90
2002;DHT22;1003;48.002;7.788;2023-09-18T00:10:02;20.00;99.90
2002;DHT22;1003;48.002;7.788;2023-09-18T00:12:29;20.20;99.90
2002;DHT22;1003;48.002;7.788;2023-09-18T00:14:56;20.20;99.90
2002;DHT22;1003;48.002;7.788;2023-09-18T00:17:23;20.20;99.90
2002;DHT22;1003;48.002;7.788;2023-09-18T00:19:50;20.10;99.90
2002;DHT22;1003;48.002;7.788;2023-09-18T00:22:19;20.10;99.90
2002;DHT22;1003;48.002;7.788;2023-09-18T00:24:47;20.10;99.90
2002;DHT22;1003;48.002;7.788;2023-09-18T00:27:14;20.00;99.90
2002;DHT22;1003;48.002;7.788;2023-09-18T00:29:42;20.10;99.90
2002;DHT22;1003;48.002;7.788;2023-09-18T00:32:09;20.00;99.90
2002;DHT22;1003;48.002;7.788;2023-09-18T00:34:36;20.00;99.90
2002;DHT22;1003;48.002;7.788;2023-09-18T00:37:03;19.90;99.90
2002;DHT22;1003;48.002;7.788;2023-09-18T00:39:30;19.90;99.90
2002;DHT22;1003;48.002;7.788;2023-09-18T00:41:59;19.80;99.90
2002;DHT22;1003;48.002;7.788;2023-09-18T00:44:26;19.70;99.90
2002;DHT22;1003;48.002;7.788;2023-09-18T00:46:53;19.60;99.90
2002;DHT22;1003;48.002;7.788;2023-09-18T00:49:22;19.60;99.90
2002;DHT22;1003;48.002;7.788;2023-09-18T00:51:50;19.60;99.90
2002;DHT22;1003;48.002;7.788;2023-09-18T00:54:18;19.70;99.90
2002;DHT22;1003;48.002;7.788;2023-09-18T00:56:46;19.70;99.90
2002;DHT22;1003;48.002;7.788;2023-09-18T00:59:20;19.70;99.90
2002;DHT22;1003;48.002;7.788;2023-09-18T01:01:49;19.80;99.90
2002;DHT22;1003;48.002;7.788;2023-09-18T01:04:17;19.80;99.90
2002;DHT22;1003;48.002;7.788;2023-09-18T01:06:44;19.70;99.90
2002;DHT22;1003;48.002;7.788;2023-09-18T01:09:12;19.70;99.90
2002;DHT22;1003;48.002;7.788;2023-09-18T01:11:48;19.70;99.90
2002;DHT22;1003;48.002;7.788;2023-09-18T01:14:27;19.60;99.90
2002;DHT22;1003;48.002;7.788;2023-09-18T01:16:59;19.60;99.90
2002;DHT22;1003;48.002;7.788;2023-09-18T01:19:36;19.60;99.90
2002;DHT22;1003;48.002;7.788;2023-09-18T01:22:04;19.60;99.90
2002;DHT22;1003;48.002;7.788;2023-09-18T01:24:34;19.60;99.90
2002;DHT22;1003;48.002;7.788;2023-09-18T01:27:03;19.60;99.90
2002;DHT22;1003;48.002;7.788;2023-09-18T01:29:31;19.60;99.90
2002;DHT22;1003;48.002;7.788;2023-09-18T01:31:58;19.50;99.90
2002;DHT22;1003;48.002;7.788;2023-09-18T01:34:28;19.50;99.90
2002;DHT22;1003;48.002;7.788;2023-09-18T01:36:59;19.50;99.90
2002;DHT22;1003;48.002;7.788;2023-09-18T01:39:28;19.60;99.90
2002;DHT22;1003;48.002;7.788;2023-09-18T01:41:59;19.60;99.90
2002;DHT22;1003;48.002;7.788;2023-09-18T01:44:28;19.60;99.90
2002;DHT22;1003;48.002;7.788;2023-09-18T01:46:57;19.60;99.90
2002;DHT22;1003;48.002;7.788;2023-09-18T01:49:29;19.60;99.90
2002;DHT22;1003;48.002;7.788;2023-09-18T01:51:57;19.70;99.90
2002;DHT22;1003;48.002;7.788;2023-09-18T01:54:24;19.80;99.90
2002;DHT22;1003;48.002;7.788;2023-09-18T01:56:52;19.70;99.90
2002;DHT22;1003;48.002;7.788;2023-09-18T01:59:21;19.70;99.90
2002;DHT22;1003;48.002;7.788;2023-09-18T02:01:50;19.50;99.90
2002;DHT22;1003;48.002;7.788;2023-09-18T02:04:18;19.40;99.90
2002;DHT22;1003;48.002;7.788;2023-09-18T02:06:46;19.40;99.90
2002;DHT22;1003;48.002;7.788;2023-09-18T02:09:14;19.30;99.90
2002;DHT22;1003;48.002;7.788;2023-09-18T02:11:43;19.20;99.90
2002;DHT22;1003;48.002;7.788;2023-09-18T02:14:11;19.10;99.90
2002;DHT22;1003;48.002;7.788;2023-09-18T02:16:42;19.20;99.90
2002;DHT22;1003;48.002;7.788;2023-09-18T02:19:12;19.20;99.90
2002;DHT22;1003;48.002;7.788;2023-09-18T02:21:40;19.20;99.90
2002;DHT22;1003;48.002;7.788;2023-09-18T02:24:07;19.30;99.90
2002;DHT22;1003;48.002;7.788;2023-09-18T02:26:35;19.30;99.90
2002;DHT22;1003;48.002;7.788;2023-09-18T02:29:05;19.40;99.90
2002;DHT22;1003;48.002;7.788;2023-09-18T02:31:33;19.40;99.90
2002;DHT22;1003;48.002;7.788;2023-09-18T02:34:01;19.50;99.90
2002;DHT22;1003;48.002;7.788;2023-09-18T02:36:28;19.50;99.90
2002;DHT22;1003;48.002;7.788;2023-09-18T02:38:55;19.60;99.90
2002;DHT22;1003;48.002;7.788;2023-09-18T02:41:22;19.50;99.90
2002;DHT22;1003;48.002;7.788;2023-09-18T02:43:49;19.50;99.90
2002;DHT22;1003;48.002;7.788;2023-09-18T02:46:16;19.40;99.90
2002;DHT22;1003;48.002;7.788;2023-09-18T02:48:43;19.40;99.90
2002;DHT22;1003;48.002;7.788;2023-09-18T02:51:12;19.40;99.90
2002;DHT22;1003;48.002;7.788;2023-09-18T02:53:39;19.40;99.90
2002;DHT22;1003;48.002;7.788;2023-09-18T02:56:06;19.30;99.90
2002;DHT22;1003;48.002;7.788;2023-09-18T02:58:33;19.30;99.90
2002;DHT22;1003;48.002;7.788;2023-09-18T03:01:00;19.30;99.90
2002;DHT22;1003;48.002;7.788;2023-09-18T03:03:29;19.20;99.90
2002;DHT22;1003;48.002;7.788;2023-09-18T03:06:00;19.20;99.90
2002;DHT22;1003;48.002;7.788;2023-09-18T03:08:30;19.10;99.90
2002;DHT22;1003;48.002;7.788;2023-09-18T03:10:57;19.00;99.90
2002;DHT22;1003;48.002;7.788;2023-09-18T03:13:26;18.90;99.90
2002;DHT22;1003;48.002;7.788;2023-09-18T03:15:54;18.80;99.90
2002;DHT22;1003;48.002;7.788;2023-09-18T03:18:22;18.90;99.90
2002;DHT22;1003;48.002;7.788;2023-09-18T03:20:49;18.80;99.90
2002;DHT22;1003;48.002;7.788;2023-09-18T03:23:16;18.80;99.90
2002;DHT22;1003;48.002;7.788;2023-09-18T03:25:45;18.80;99.90
2002;DHT22;1003;48.002;7.788;2023-09-18T03:28:13;18.80;99.90
2002;DHT22;1003;48.002;7.788;2023-09-18T03:30:40;18.70;99.90
2002;DHT22;1003;48.002;7.788;2023-09-18T03:33:07;18.70;99.90
2002;DHT22;1003;48.002;7.788;2023-09-18T03:35:45;18.70;99.90
2002;DHT22;1003;48.002;7.788;2023-09-18T03:38:14;18.70;99.90
2002;DHT22;1003;48.002;7.788;2023-09-18T03:40:41;18.80;99.90
2002;DHT22;1003;48.002;7.788;2023-09-18T03:43:11;18.70;99.90
2002;DHT22;1003;48.002;7.788;2023-09-18T03:45:38;18.70;99.90
2002;DHT22;1003;48.002;7.788;2023-09-18T03:48:06;18.60;99.90
2002;DHT22;1003;48.002;7.788;2023-09-18T03:50:33;18.60;99.90
2002;DHT22;1003;48.002;7.788;2023-09-18T03:53:00;18.60;99.90
2002;DHT22;1003;48.002;7.788;2023-09-18T03:55:27;18.60;99.90
2002;DHT22;1003;48.002;7.788;2023-09-18T03:57:55;18.60;99.90
2002;DHT22;1003;48.002;7.788;2023-09-18T04:00:23;18.60;99.90
2002;DHT22;1003;48.002;7.788;2023-09-18T04:02:51;18.60;99.90
2002;DHT22;1003;48.002;7.788;2023-09-18T04:05:18;18.60;99.90
2002;DHT22;1003;48.002;7.788;2023-09-18T04:07:45;18.70;99.90
2002;DHT22;1003;48.002;7.788;2023-09-18T04:10:12;18.60;99.90
2002;DHT22;1003;48.002;7.788;2023-09-18T04:12:45;18.50;99.90
2002;DHT22;1003;48.002;7.788;2023-09-18T04:15:14;18.50;99.90
2002;DHT22;1003;48.002;7.788;2023-09-18T04:17:44;18.40;99.90
2002;DHT22;1003;48.002;7.788;2023-09-18T04:20:11;18.40;99.90
2002;DHT22;1003;48.002;7.788;2023-09-18T04:22:43;18.30;99.90
2002;DHT22;1003;48.002;7.788;2023-09-18T04:25:15;18.30;99.90
2002;DHT22;1003;48.002;7.788;2023-09-18T04:27:42;18.30;99.90
2002;DHT22;1003;48.002;7.788;2023-09-18T04:30:10;18.30;99.90
2002;DHT22;1003;48.002;7.788;2023-09-18T04:32:37;18.30;99.90
2002;DHT22;1003;48.002;7.788;2023-09-18T04:35:06;18.30;99.90
2002;DHT22;1003;48.002;7.788;2023-09-18T04:37:37;18.20;99.90
2002;DHT22;1003;48.002;7.788;2023-09-18T04:40:06;18.20;99.90
2002;DHT22;1003;48.002;7.788;2023-09-18T04:42:36;18.20;99.90
2002;DHT22;1003;48.002;7.788;2023-09-18T04:45:04;18.20;99.90
2002;DHT22;1003;48.002;7.788;2023-09-18T04:47:32;18.20;99.90
2002;DHT22;1003;48.002;7.788;2023-09-18T04:49:59;18.20;99.90
2002;DHT22;1003;48.002;7.788;2023-09-18T04:52:27;18.20;99.90
2002;DHT22;1003;48.002;7.788;2023-09-18T04:54:54;18.20;99.90
2002;DHT22;1003;48.002;7.788;2023-09-18T04:57:22;18.20;99.90
2002;DHT22;1003;48.002;7.788;2023-09-18T04:59:49;18.20;99.90
2002;DHT22;1003;48.002;7.788;2023-09-18T05:02:17;18.20;99.90
2002;DHT22;1003;48.002;7.788;2023-09-18T05:04:44;18.20;99.90
2002;DHT22;1003;48.002;7.788;2023-09-18T05:07:11;18.10;99.90
2002;DHT22;1003;48.002;7.788;2023-09-18T05:09:39;18.10;99.90
2002;DHT22;1003;48.002;7.788;2023-09-18T05:12:06;18.20;99.90
2002;DHT22;1003;48.002;7.788;2023-09-18T05:14:39;18.20;99.90
2002;DHT22;1003;48.002;7.788;2023-09-18T05:17:08;18.20;99.90
2002;DHT22;1003;48.002;7.788;2023-09-18T05:19:36;18.20;99.90
2002;DHT22;1003;48.002;7.788;2023-09-18T05:22:03;18.30;99.90
2002;DHT22;1003;48.002;7.788;2023-09-18T05:24:30;18.30;99.90
2002;DHT22;1003;48.002;7.788;2023-09-18T05:26:59;18.30;99.90
2002;DHT22;1003;48.002;7.788;2023-09-18T05:29:26;18.30;99.90
2002;DHT22;1003;48.002;7.788;2023-09-18T05:31:52;18.30;99.90
2002;DHT22;1003;48.002;7.788;2023-09-18T05:34:19;18.30;99.90
2002;DHT22;1003;48.002;7.788;2023-09-18T05:36:46;18.20;99.90
2002;DHT22;1003;48.002;7.788;2023-09-18T05:39:14;18.30;99.90
2002;DHT22;1003;48.002;7.788;2023-09-18T05:41:41;18.30;99.90
2002;DHT22;1003;48.002;7.788;2023-09-18T05:44:09;18.40;99.90
2002;DHT22;1003;48.002;7.788;2023-09-18T05:46:36;18.40;99.90
2002;DHT22;1003;48.002;7.788;2023-09-18T05:49:03;18.40;99.90
2002;DHT22;1003;48.002;7.788;2023-09-18T05:51:31;18.40;99.90
2002;DHT22;1003;48.002;7.788;2023-09-18T05:53:58;18.40;99.90
2002;DHT22;1003;48.002;7.788;2023-09-18T05:56:25;18.50;99.90
2002;DHT22;1003;48.002;7.788;2023-09-18T05:58:52;18.40;99.90
2002;DHT22;1003;48.002;7.788;2023-09-18T06:01:22;18.40;99.90
2002;DHT22;1003;48.002;7.788;2023-09-18T06:03:49;18.40;99.90
2002;DHT22;1003;48.002;7.788;2023-09-18T06:06:16;18.50;99.90
2002;DHT22;1003;48.002;7.788;2023-09-18T06:08:43;18.50;99.90
2002;DHT22;1003;48.002;7.788;2023-09-18T06:11:10;18.50;99.90
2002;DHT22;1003;48.002;7.788;2023-09-18T06:13:37;18.50;99.90
2002;DHT22;1003;48.002;7.788;2023-09-18T06:16:05;18.50;99.90
2002;DHT22;1003;48.002;7.788;2023-09-18T06:18:35;18.50;99.90
2002;DHT22;1003;48.002;7.788;2023-09-18T06:21:03;18.50;99.90
2002;DHT22;1003;48.002;7.788;2023-09-18T06:23:31;18.50;99.90
2002;DHT22;1003;48.002;7.788;2023-09-18T06:25:59;18.50;99.90
2002;DHT22;1003;48.002;7.788;2023-09-18T06:28:27;18.50;99.90
2002;DHT22;1003;48.002;7.788;2023-09-18T06:30:54;18.40;99.90
2002;DHT22;1003;48.002;7.788;2023-09-18T06:33:21;18.50;99.90
2002;DHT22;1003;48.002;7.788;2023-09-18T06:35:49;18.40;99.90
2002;DHT22;1003;48.002;7.788;2023-09-18T06:38:17;18.40;99.90
2002;DHT22;1003;48.002;7.788;2023-09-18T06:40:46;18.30;99.90
2002;DHT22;1003;48.002;7.788;2023-09-18T06:43:13;18.30;99.90
2002;DHT22;1003;48.002;7.788;2023-09-18T06:45:40;18.30;99.90
2002;DHT22;1003;48.002;7.788;2023-09-18T06:48:07;18.40;99.90
2002;DHT22;1003;48.002;7.788;2023-09-18T06:50:34;18.40;99.90
2002;DHT22;1003;48.002;7.788;2023-09-18T06:53:03;18.30;99.90
2002;DHT22;1003;48.002;7.788;2023-09-18T06:55:30;18.30;99.90
2002;DHT22;1003;48.002;7.788;2023-09-18T06:57:57;18.30;99.90
2002;DHT22;1003;48.002;7.788;2023-09-18T07:00:24;18.30;99.90
2002;DHT22;1003;48.002;7.788;2023-09-18T07:02:51;18.30;99.90
2002;DHT22;1003;48.002;7.788;2023-09-18T07:05:18;18.20;99.90
2002;DHT22;1003;48.002;7.788;2023-09-18T07:07:45;18.20;99.90
2002;DHT22;1003;48.002;7.788;2023-09-18T07:10:14;18.30;99.90
2002;DHT22;1003;48.002;7.788;2023-09-18T07:12:41;18.30;99.90
2002;DHT22;1003;48.002;7.788;2023-09-18T07:15:08;18.30;99.90
2002;DHT22;1003;48.002;7.788;2023-09-18T07:17:36;18.30;99.90
2002;DHT22;1003;48.002;7.788;2023-09-18T07:20:03;18.30;99.90
2002;DHT22;1003;48.002;7.788;2023-09-18T07:22:39;18.30;99.90
2002;DHT22;1003;48.002;7.788;2023-09-18T07:25:06;18.30;99.90
2002;DHT22;1003;48.002;7.788;2023-09-18T07:27:35;18.40;99.90
2002;DHT22;1003;48.002;7.788;2023-09-18T07:30:06;18.60;99.90
2002;DHT22;1003;48.002;7.788;2023-09-18T07:32:33;18.40;99.90
2002;DHT22;1003;48.002;7.788;2023-09-18T07:35:00;18.40;99.90
2002;DHT22;1003;48.002;7.788;2023-09-18T07:37:30;18.40;99.90
2002;DHT22;1003;48.002;7.788;2023-09-18T07:39:57;18.40;99.90
2002;DHT22;1003;48.002;7.788;2023-09-18T07:42:24;18.50;99.90
2002;DHT22;1003;48.002;7.788;2023-09-18T07:44:53;18.40;99.90
2002;DHT22;1003;48.002;7.788;2023-09-18T07:47:20;18.40;99.90
2002;DHT22;1003;48.002;7.788;2023-09-18T07:49:48;18.40;99.90
2002;DHT22;1003;48.002;7.788;2023-09-18T07:52:16;18.50;99.90
2002;DHT22;1003;48.002;7.788;2023-09-18T07:54:43;18.40;99.90
2002;DHT22;1003;48.002;7.788;2023-09-18T07:57:10;18.30;99.90
2002;DHT22;1003;48.002;7.788;2023-09-18T07:59:37;18.40;99.90
2002;DHT22;1003;48.002;7.788;2023-09-18T08:02:06;18.30;99.90
2002;DHT22;1003;48.002;7.788;2023-09-18T08:04:34;18.30;99.90
2002;DHT22;1003;48.002;7.788;2023-09-18T08:07:01;18.30;99.90
2002;DHT22;1003;48.002;7.788;2023-09-18T08:09:31;18.30;99.90
2002;DHT22;1003;48.002;7.788;2023-09-18T08:12:02;18.40;99.90
2002;DHT22;1003;48.002;7.788;2023-09-18T08:14:29;18.40;99.90
2002;DHT22;1003;48.002;7.788;2023-09-18T08:16:56;18.40;99.90
2002;DHT22;1003;48.002;7.788;2023-09-18T08:19:25;18.30;99.90
2002;DHT22;1003;48.002;7.788;2023-09-18T08:21:53;18.30;99.90
2002;DHT22;1003;48.002;7.788;2023-09-18T08:24:21;18.50;99.90
2002;DHT22;1003;48.002;7.788;2023-09-18T08:26:48;18.50;99.90
2002;DHT22;1003;48.002;7.788;2023-09-18T08:29:16;18.50;99.90
2002;DHT22;1003;48.002;7.788;2023-09-18T08:31:43;18.40;99.90
2002;DHT22;1003;48.002;7.788;2023-09-18T08:34:10;18.40;99.90
2002;DHT22;1003;48.002;7.788;2023-09-18T08:36:39;18.40;99.90
2002;DHT22;1003;48.002;7.788;2023-09-18T08:39:06;18.40;99.90
2002;DHT22;1003;48.002;7.788;2023-09-18T08:41:38;18.40;99.90
2002;DHT22;1003;48.002;7.788;2023-09-18T08:44:09;18.40;99.90
2002;DHT22;1003;48.002;7.788;2023-09-18T08:46:37;18.40;99.90
2002;DHT22;1003;48.002;7.788;2023-09-18T08:49:04;18.40;99.90
2002;DHT22;1003;48.002;7.788;2023-09-18T08:51:34;18.40;99.90
2002;DHT22;1003;48.002;7.788;2023-09-18T08:54:04;18.50;99.90
2002;DHT22;1003;48.002;7.788;2023-09-18T08:56:33;18.60;99.90
2002;DHT22;1003;48.002;7.788;2023-09-18T08:59:00;18.50;99.90
2002;DHT22;1003;48.002;7.788;2023-09-18T09:01:28;18.50;99.90
2002;DHT22;1003;48.002;7.788;2023-09-18T09:03:55;18.60;99.90
2002;DHT22;1003;48.002;7.788;2023-09-18T09:06:22;18.60;99.90
2002;DHT22;1003;48.002;7.788;2023-09-18T09:08:49;18.50;99.90
2002;DHT22;1003;48.002;7.788;2023-09-18T09:11:18;18.60;99.90
2002;DHT22;1003;48.002;7.788;2023-09-18T09:13:46;18.70;99.90
2002;DHT22;1003;48.002;7.788;2023-09-18T09:16:13;18.60;99.90
2002;DHT22;1003;48.002;7.788;2023-09-18T09:18:48;18.70;99.90
2002;DHT22;1003;48.002;7.788;2023-09-18T09:21:16;18.80;99.90
2002;DHT22;1003;48.002;7.788;2023-09-18T09:23:49;18.80;99.90
2002;DHT22;1003;48.002;7.788;2023-09-18T09:26:20;18.90;99.90
2002;DHT22;1003;48.002;7.788;2023-09-18T09:28:49;18.80;99.90
2002;DHT22;1003;48.002;7.788;2023-09-18T09:31:26;18.80;99.90
2002;DHT22;1003;48.002;7.788;2023-09-18T09:33:54;18.70;99.90
2002;DHT22;1003;48.002;7.788;2023-09-18T09:36:23;18.70;99.90
2002;DHT22;1003;48.002;7.788;2023-09-18T09:38:54;18.70;99.90
2002;DHT22;1003;48.002;7.788;2023-09-18T09:41:24;18.70;99.90
2002;DHT22;1003;48.002;7.788;2023-09-18T09:43:53;18.80;99.90
2002;DHT22;1003;48.002;7.788;2023-09-18T09:46:22;18.80;99.90
2002;DHT22;1003;48.002;7.788;2023-09-18T09:49:01;18.90;99.90
2002;DHT22;1003;48.002;7.788;2023-09-18T09:51:30;18.90;99.90
2002;DHT22;1003;48.002;7.788;2023-09-18T09:53:58;18.90;99.90
2002;DHT22;1003;48.002;7.788;2023-09-18T09:56:45;19.00;99.90
2002;DHT22;1003;48.002;7.788;2023-09-18T09:59:14;19.10;99.90
2002;DHT22;1003;48.002;7.788;2023-09-18T10:01:43;19.20;99.90
2002;DHT22;1003;48.002;7.788;2023-09-18T10:04:17;19.30;99.90
2002;DHT22;1003;48.002;7.788;2023-09-18T10:06:50;19.30;99.90
2002;DHT22;1003;48.002;7.788;2023-09-18T10:09:20;19.30;99.90
2002;DHT22;1003;48.002;7.788;2023-09-18T10:11:52;19.40;99.90
2002;DHT22;1003;48.002;7.788;2023-09-18T10:14:28;19.40;99.90
2002;DHT22;1003;48.002;7.788;2023-09-18T10:17:02;19.40;99.90
2002;DHT22;1003;48.002;7.788;2023-09-18T10:19:40;19.50;99.90
2002;DHT22;1003;48.002;7.788;2023-09-18T10:22:24;19.50;99.90
2002;DHT22;1003;48.002;7.788;2023-09-18T10:25:03;19.50;99.90
2002;DHT22;1003;48.002;7.788;2023-09-18T10:27:39;19.50;99.90
2002;DHT22;1003;48.002;7.788;2023-09-18T10:30:11;19.50;99.90
2002;DHT22;1003;48.002;7.788;2023-09-18T10:32:40;19.60;99.90
2002;DHT22;1003;48.002;7.788;2023-09-18T10:35:07;19.70;99.90
2002;DHT22;1003;48.002;7.788;2023-09-18T10:37:37;19.80;99.90
2002;DHT22;1003;48.002;7.788;2023-09-18T10:40:06;20.00;99.90
2002;DHT22;1003;48.002;7.788;2023-09-18T10:42:38;20.20;99.90
2002;DHT22;1003;48.002;7.788;2023-09-18T10:45:07;20.40;99.90
2002;DHT22;1003;48.002;7.788;2023-09-18T10:47:37;20.60;99.90
2002;DHT22;1003;48.002;7.788;2023-09-18T10:50:07;20.90;99.90
2002;DHT22;1003;48.002;7.788;2023-09-18T10:52:35;21.10;99.90
2002;DHT22;1003;48.002;7.788;2023-09-18T10:55:03;21.30;99.90
2002;DHT22;1003;48.002;7.788;2023-09-18T10:57:33;21.40;99.90
2002;DHT22;1003;48.002;7.788;2023-09-18T11:00:03;21.60;99.90
2002;DHT22;1003;48.002;7.788;2023-09-18T11:02:39;21.70;99.90
2002;DHT22;1003;48.002;7.788;2023-09-18T11:05:07;21.80;99.90
2002;DHT22;1003;48.002;7.788;2023-09-18T11:07:34;21.80;99.90
2002;DHT22;1003;48.002;7.788;2023-09-18T11:10:25;21.70;99.90
2002;DHT22;1003;48.002;7.788;2023-09-18T11:12:53;21.70;99.90
2002;DHT22;1003;48.002;7.788;2023-09-18T11:15:31;21.70;99.90
2002;DHT22;1003;48.002;7.788;2023-09-18T11:17:59;21.60;99.90
2002;DHT22;1003;48.002;7.788;2023-09-18T11:20:28;21.70;99.90
2002;DHT22;1003;48.002;7.788;2023-09-18T11:22:57;21.70;99.90
2002;DHT22;1003;48.002;7.788;2023-09-18T11:25:39;21.90;99.90
2002;DHT22;1003;48.002;7.788;2023-09-18T11:28:08;22.00;99.90
2002;DHT22;1003;48.002;7.788;2023-09-18T11:30:50;22.00;99.90
2002;DHT22;1003;48.002;7.788;2023-09-18T11:33:30;22.20;99.90
2002;DHT22;1003;48.002;7.788;2023-09-18T11:36:06;22.30;99.90
2002;DHT22;1003;48.002;7.788;2023-09-18T11:38:51;22.50;99.90
2002;DHT22;1003;48.002;7.788;2023-09-18T11:41:23;22.70;99.90
2002;DHT22;1003;48.002;7.788;2023-09-18T11:43:51;22.70;99.90
2002;DHT22;1003;48.002;7.788;2023-09-18T11:46:21;22.80;99.90
2002;DHT22;1003;48.002;7.788;2023-09-18T11:48:48;22.80;99.90
2002;DHT22;1003;48.002;7.788;2023-09-18T11:51:22;22.90;99.90
2002;DHT22;1003;48.002;7.788;2023-09-18T11:53:53;23.00;99.90
2002;DHT22;1003;48.002;7.788;2023-09-18T11:56:23;22.90;99.90
2002;DHT22;1003;48.002;7.788;2023-09-18T11:58:51;22.90;99.90
2002;DHT22;1003;48.002;7.788;2023-09-18T12:01:21;22.80;99.90
2002;DHT22;1003;48.002;7.788;2023-09-18T12:03:53;22.70;99.90
2002;DHT22;1003;48.002;7.788;2023-09-18T12:06:21;22.60;99.90
2002;DHT22;1003;48.002;7.788;2023-09-18T12:08:51;22.60;99.90
2002;DHT22;1003;48.002;7.788;2023-09-18T12:11:19;22.70;99.90
2002;DHT22;1003;48.002;7.788;2023-09-18T12:13:50;22.70;99.90
2002;DHT22;1003;48.002;7.788;2023-09-18T12:16:18;22.70;99.90
2002;DHT22;1003;48.002;7.788;2023-09-18T12:18:47;22.70;99.90
2002;DHT22;1003;48.002;7.788;2023-09-18T12:21:15;22.70;99.90
2002;DHT22;1003;48.002;7.788;2023-09-18T12:23:44;22.70;99.90
2002;DHT22;1003;48.002;7.788;2023-09-18T12:26:13;22.70;99.90
2002;DHT22;1003;48.002;7.788;2023-09-18T12:28:41;22.70;99.90
2002;DHT22;1003;48.002;7.788;2023-09-18T12:31:13;22.70;99.90
2002;DHT22;1003;48.002;7.788;2023-09-18T12:33:42;22.70;99.90
2002;DHT22;1003;48.002;7.788;2023-09-18T12:36:19;22.80;99.90
2002;DHT22;1003;48.002;7.788;2023-09-18T12:38:55;22.90;99.90
2002;DHT22;1003;48.002;7.788;2023-09-18T12:41:24;23.10;99.90
2002;DHT22;1003;48.002;7.788;2023-09-18T12:43:52;23.20;99.90
2002;DHT22;1003;48.002;7.788;2023-09-18T12:46:21;23.40;99.90
2002;DHT22;1003;48.002;7.788;2023-09-18T12:48:48;23.60;99.90
2002;DHT22;1003;48.002;7.788;2023-09-18T12:51:16;23.60;99.90
2002;DHT22;1003;48.002;7.788;2023-09-18T12:53:58;23.70;99.90
2002;DHT22;1003;48.002;7.788;2023-09-18T12:56:26;23.90;99.90
2002;DHT22;1003;48.002;7.788;2023-09-18T12:58:57;23.80;99.90
2002;DHT22;1003;48.002;7.788;2023-09-18T13:01:24;23.80;99.90
2002;DHT22;1003;48.002;7.788;2023-09-18T13:03:54;23.60;99.90
2002;DHT22;1003;48.002;7.788;2023-09-18T13:06:22;23.50;99.90
2002;DHT22;1003;48.002;7.788;2023-09-18T13:08:49;23.50;99.90
2002;DHT22;1003;48.002;7.788;2023-09-18T13:11:18;23.50;99.90
2002;DHT22;1003;48.002;7.788;2023-09-18T13:13:45;23.50;99.90
2002;DHT22;1003;48.002;7.788;2023-09-18T13:16:12;23.60;99.90
2002;DHT22;1003;48.002;7.788;2023-09-18T13:18:40;23.60;99.90
2002;DHT22;1003;48.002;7.788;2023-09-18T13:21:11;23.50;99.90
2002;DHT22;1003;48.002;7.788;2023-09-18T13:23:40;23.60;99.90
2002;DHT22;1003;48.002;7.788;2023-09-18T13:26:08;23.70;99.90
2002;DHT22;1003;48.002;7.788;2023-09-18T13:28:35;23.70;99.90
2002;DHT22;1003;48.002;7.788;2023-09-18T13:31:04;23.70;99.90
2002;DHT22;1003;48.002;7.788;2023-09-18T13:33:32;23.70;99.90
2002;DHT22;1003;48.002;7.788;2023-09-18T13:36:00;23.80;99.90
2002;DHT22;1003;48.002;7.788;2023-09-18T13:38:27;23.80;99.90
2002;DHT22;1003;48.002;7.788;2023-09-18T13:40:55;23.80;99.90
2002;DHT22;1003;48.002;7.788;2023-09-18T13:43:22;23.80;99.90
2002;DHT22;1003;48.002;7.788;2023-09-18T13:45:50;23.70;99.90
2002;DHT22;1003;48.002;7.788;2023-09-18T13:48:18;23.70;99.90
2002;DHT22;1003;48.002;7.788;2023-09-18T13:50:46;23.60;99.90
2002;DHT22;1003;48.002;7.788;2023-09-18T13:53:14;23.60;99.90
2002;DHT22;1003;48.002;7.788;2023-09-18T13:55:41;23.60;99.90
2002;DHT22;1003;48.002;7.788;2023-09-18T13:58:09;23.60;99.90
2002;DHT22;1003;48.002;7.788;2023-09-18T14:00:36;23.50;99.90
2002;DHT22;1003;48.002;7.788;2023-09-18T14:03:04;23.40;99.90
2002;DHT22;1003;48.002;7.788;2023-09-18T14:05:31;23.40;99.90
2002;DHT22;1003;48.002;7.788;2023-09-18T14:07:59;23.50;99.90
2002;DHT22;1003;48.002;7.788;2023-09-18T14:10:28;23.40;99.90
2002;DHT22;1003;48.002;7.788;2023-09-18T14:12:55;23.60;99.90
2002;DHT22;1003;48.002;7.788;2023-09-18T14:15:24;23.60;99.90
2002;DHT22;1003;48.002;7.788;2023-09-18T14:17:51;23.60;99.90
2002;DHT22;1003;48.002;7.788;2023-09-18T14:20:19;23.50;99.90
2002;DHT22;1003;48.002;7.788;2023-09-18T14:22:47;23.60;99.90
2002;DHT22;1003;48.002;7.788;2023-09-18T14:25:15;23.50;99.90
2002;DHT22;1003;48.002;7.788;2023-09-18T14:27:43;23.60;99.90
2002;DHT22;1003;48.002;7.788;2023-09-18T14:30:11;23.60;99.90
2002;DHT22;1003;48.002;7.788;2023-09-18T14:32:40;23.80;99.90
2002;DHT22;1003;48.002;7.788;2023-09-18T14:35:07;23.70;99.90
2002;DHT22;1003;48.002;7.788;2023-09-18T14:37:35;23.60;99.90
2002;DHT22;1003;48.002;7.788;2023-09-18T14:40:03;23.60;99.90
2002;DHT22;1003;48.002;7.788;2023-09-18T14:42:33;23.40;99.90
2002;DHT22;1003;48.002;7.788;2023-09-18T14:45:00;23.30;99.90
2002;DHT22;1003;48.002;7.788;2023-09-18T14:47:27;23.30;99.90
2002;DHT22;1003;48.002;7.788;2023-09-18T14:49:55;23.30;99.90
2002;DHT22;1003;48.002;7.788;2023-09-18T14:52:23;23.30;99.90
2002;DHT22;1003;48.002;7.788;2023-09-18T14:54:51;23.40;99.90
2002;DHT22;1003;48.002;7.788;2023-09-18T14:57:18;23.50;99.90
2002;DHT22;1003;48.002;7.788;2023-09-18T14:59:45;23.50;99.90
2002;DHT22;1003;48.002;7.788;2023-09-18T15:02:13;23.60;99.90
2002;DHT22;1003;48.002;7.788;2023-09-18T15:04:41;23.60;99.90
2002;DHT22;1003;48.002;7.788;2023-09-18T15:07:10;23.70;99.90
2002;DHT22;1003;48.002;7.788;2023-09-18T15:09:37;23.70;99.90
2002;DHT22;1003;48.002;7.788;2023-09-18T15:12:04;23.60;99.90
2002;DHT22;1003;48.002;7.788;2023-09-18T15:14:34;23.60;99.90
2002;DHT22;1003;48.002;7.788;2023-09-18T15:17:01;23.60;99.90
2002;DHT22;1003;48.002;7.788;2023-09-18T15:19:28;23.60;99.90
2002;DHT22;1003;48.002;7.788;2023-09-18T15:21:55;23.60;99.90
2002;DHT22;1003;48.002;7.788;2023-09-18T15:24:24;23.60;99.90
2002;DHT22;1003;48.002;7.788;2023-09-18T15:26:51;23.70;99.90
2002;DHT22;1003;48.002;7.788;2023-09-18T15:29:18;23.60;99.90
2002;DHT22;1003;48.002;7.788;2023-09-18T15:31:45;23.50;99.90
2002;DHT22;1003;48.002;7.788;2023-09-18T15:34:13;23.40;99.90
2002;DHT22;1003;48.002;7.788;2023-09-18T15:36:40;23.30;99.90
2002;DHT22;1003;48.002;7.788;2023-09-18T15:39:07;23.20;99.90
2002;DHT22;1003;48.002;7.788;2023-09-18T15:41:36;23.10;99.90
2002;DHT22;1003;48.002;7.788;2023-09-18T15:44:04;23.00;99.90
2002;DHT22;1003;48.002;7.788;2023-09-18T15:46:32;22.90;99.90
2002;DHT22;1003;48.002;7.788;2023-09-18T15:49:00;22.90;99.90
2002;DHT22;1003;48.002;7.788;2023-09-18T15:51:28;22.80;99.90
2002;DHT22;1003;48.002;7.788;2023-09-18T15:53:55;22.70;99.90
2002;DHT22;1003;48.002;7.788;2023-09-18T15:56:22;22.70;99.90
2002;DHT22;1003;48.002;7.788;2023-09-18T15:58:50;22.70;99.90
2002;DHT22;1003;48.002;7.788;2023-09-18T16:01:17;22.70;99.90
2002;DHT22;1003;48.002;7.788;2023-09-18T16:03:46;22.70;99.90
2002;DHT22;1003;48.002;7.788;2023-09-18T16:06:14;22.80;99.90
2002;DHT22;1003;48.002;7.788;2023-09-18T16:08:43;22.90;99.90
2002;DHT22;1003;48.002;7.788;2023-09-18T16:11:11;22.80;99.90